Time;durP1;ratioP1;P1;durP2;ratioP2;P2;SDS_P1;SDS_P2;PMS_P1;PMS_P2;Temp;Humidity;BMP_temperature;BMP_pressure;BME280_temperature;BME280_humidity;BME280_pressure;Samples;Min_cycle;Max_cycle;Signal;HPM_P1;HPM_P2
2022/10/06 00:02:10;;;;;;;13.80;7.93;;;20.90;92.80;;;;;;5037050;28;20029;-77
2022/10/06 00:04:36;;;;;;;12.60;7.18;;;20.90;92.60;;;;;;5018213;28;20036;-81
2022/10/06 00:07:01;;;;;;;15.38;7.22;;;20.90;92.60;;;;;;5035711;28;20033;-80
2022/10/06 00:09:27;;;;;;;11.30;6.03;;;20.80;92.40;;;;;;5035707;28;20026;-80
2022/10/06 00:11:53;;;;;;;14.00;7.18;;;20.80;92.40;;;;;;5035817;28;20029;-78
2022/10/06 00:14:18;;;;;;;13.98;7.20;;;20.80;92.40;;;;;;5035671;28;20018;-80
2022/10/06 00:16:44;;;;;;;12.52;7.05;;;20.80;92.40;;;;;;5035497;28;20029;-79
2022/10/06 00:19:10;;;;;;;16.65;6.95;;;20.80;92.30;;;;;;5018139;28;20113;-79
2022/10/06 00:21:38;;;;;;;20.77;7.95;;;20.80;92.20;;;;;;5035695;28;20029;-79
2022/10/06 00:24:07;;;;;;;11.25;7.30;;;20.80;92.30;;;;;;5001827;28;20505;-78
2022/10/06 00:26:36;;;;;;;12.85;8.25;;;20.90;92.10;;;;;;5035559;28;20029;-79
2022/10/06 00:29:02;;;;;;;13.20;7.63;;;20.90;92.20;;;;;;5035978;28;20095;-76
2022/10/06 00:31:29;;;;;;;14.73;7.70;;;20.90;91.90;;;;;;5035682;28;20033;-80
2022/10/06 00:33:54;;;;;;;12.23;7.45;;;20.90;91.90;;;;;;5017960;28;20037;-79
2022/10/06 00:36:20;;;;;;;16.95;8.02;;;20.90;92.00;;;;;;5035579;28;20536;-79
2022/10/06 00:38:46;;;;;;;13.77;7.60;;;20.80;92.00;;;;;;5017443;28;20079;-78
2022/10/06 00:41:16;;;;;;;17.85;8.35;;;20.80;92.00;;;;;;5017351;28;20041;-79
2022/10/06 00:43:41;;;;;;;15.23;8.32;;;20.80;92.10;;;;;;5017931;28;20093;-79
2022/10/06 00:46:15;;;;;;;14.00;8.32;;;20.80;92.10;;;;;;5035057;28;20036;-80
2022/10/06 00:48:44;;;;;;;16.40;8.23;;;20.70;92.10;;;;;;5035450;28;20509;-72
2022/10/06 00:51:10;;;;;;;17.92;8.45;;;20.60;92.50;;;;;;5035304;28;20477;-72
2022/10/06 00:53:39;;;;;;;14.65;8.23;;;20.60;92.40;;;;;;5035086;28;20025;-73
2022/10/06 00:56:06;;;;;;;11.90;7.28;;;20.50;92.50;;;;;;5017255;28;20025;-72
2022/10/06 00:58:35;;;;;;;14.13;7.45;;;20.50;92.70;;;;;;5033579;28;20060;-72
2022/10/06 01:01:04;;;;;;;15.30;8.80;;;20.50;92.70;;;;;;5016842;28;20039;-72
2022/10/06 01:03:38;;;;;;;13.10;7.95;;;20.40;92.70;;;;;;5016683;28;20025;-73
2022/10/06 01:06:04;;;;;;;14.98;8.07;;;20.40;92.50;;;;;;5034522;28;20482;-72
2022/10/06 01:08:31;;;;;;;15.90;7.88;;;20.30;92.50;;;;;;5034599;28;20044;-73
2022/10/06 01:10:57;;;;;;;13.25;8.20;;;20.30;92.50;;;;;;5034613;28;20025;-74
2022/10/06 01:13:25;;;;;;;16.40;8.18;;;20.30;92.60;;;;;;5034737;28;20099;-73
2022/10/06 01:16:29;;;;;;;13.23;8.35;;;20.30;92.80;;;;;;5016608;28;20075;-72
2022/10/06 01:19:02;;;;;;;14.60;7.80;;;20.30;92.80;;;;;;5000925;28;20120;-72
2022/10/06 01:21:37;;;;;;;15.98;7.97;;;20.20;92.60;;;;;;5034333;28;20455;-72
2022/10/06 01:24:03;;;;;;;20.05;8.15;;;20.20;92.40;;;;;;5034425;28;20024;-72
2022/10/06 01:26:32;;;;;;;16.08;8.40;;;20.10;92.40;;;;;;5016233;28;20037;-72
2022/10/06 01:28:58;;;;;;;17.13;8.30;;;20.10;92.40;;;;;;5034088;28;20548;-73
2022/10/06 01:31:25;;;;;;;11.93;7.90;;;20.10;92.30;;;;;;5034196;28;20026;-72
2022/10/06 01:33:54;;;;;;;15.05;7.85;;;20.00;92.30;;;;;;5033913;28;20017;-71
2022/10/06 01:36:20;;;;;;;15.40;7.00;;;20.00;92.50;;;;;;5016507;28;20025;-73
2022/10/06 01:38:46;;;;;;;14.25;7.63;;;20.00;92.40;;;;;;5033785;28;20401;-72
2022/10/06 01:41:12;;;;;;;14.32;7.75;;;20.00;92.40;;;;;;4999716;28;20025;-71
2022/10/06 01:43:38;;;;;;;12.32;7.43;;;19.90;92.20;;;;;;5033852;28;20064;-73
2022/10/06 01:46:04;;;;;;;14.30;7.05;;;19.90;92.40;;;;;;5033888;28;20083;-73
2022/10/06 01:48:29;;;;;;;11.52;6.60;;;19.90;92.40;;;;;;5033725;28;20541;-74
2022/10/06 01:50:55;;;;;;;15.32;6.80;;;19.80;92.30;;;;;;5016028;28;20028;-74
2022/10/06 01:53:21;;;;;;;11.25;6.45;;;19.80;92.40;;;;;;5033792;28;20025;-71
2022/10/06 01:55:47;;;;;;;12.27;6.63;;;19.80;92.30;;;;;;5015760;28;20051;-75
2022/10/06 01:58:13;;;;;;;9.52;5.85;;;19.70;92.30;;;;;;5033439;28;20504;-75
2022/10/06 02:00:40;;;;;;;10.68;5.82;;;19.70;92.30;;;;;;5033640;28;20063;-73
2022/10/06 02:03:06;;;;;;;10.95;5.43;;;19.70;92.50;;;;;;5033606;28;20127;-75
2022/10/06 02:05:33;;;;;;;13.38;6.20;;;19.70;92.30;;;;;;5033254;28;20091;-73
2022/10/06 02:08:01;;;;;;;10.23;6.18;;;19.60;92.30;;;;;;5033092;28;20557;-80
2022/10/06 02:10:27;;;;;;;14.75;5.88;;;19.60;92.50;;;;;;5033639;28;20026;-78
2022/10/06 02:12:53;;;;;;;10.23;5.97;;;19.60;92.40;;;;;;5015954;28;20090;-79
2022/10/06 02:15:20;;;;;;;9.40;6.50;;;19.50;92.40;;;;;;5048986;28;20383;-79
2022/10/06 02:17:47;;;;;;;10.50;5.95;;;19.50;92.40;;;;;;5016804;28;20350;-77
2022/10/06 02:20:14;;;;;;;17.60;6.10;;;19.60;92.60;;;;;;5019584;28;20014;-75
2022/10/06 02:22:42;;;;;;;13.95;6.72;;;19.60;92.60;;;;;;5038042;28;20036;-74
2022/10/06 02:25:08;;;;;;;11.55;6.07;;;19.50;92.50;;;;;;5034079;28;20026;-76
2022/10/06 02:27:34;;;;;;;12.73;6.13;;;19.50;92.50;;;;;;5034205;28;20076;-76
2022/10/06 02:30:00;;;;;;;12.68;5.72;;;19.40;92.50;;;;;;5034051;28;20402;-77
2022/10/06 02:32:34;;;;;;;15.68;6.07;;;19.40;92.60;;;;;;5033474;28;20068;-75
2022/10/06 02:35:11;;;;;;;11.95;6.00;;;19.40;92.80;;;;;;5032783;28;20021;-77
2022/10/06 02:37:40;;;;;;;10.82;5.47;;;19.40;92.90;;;;;;5033275;28;20425;-77
2022/10/06 02:40:07;;;;;;;10.35;5.40;;;19.40;92.80;;;;;;5015799;28;20034;-77
2022/10/06 02:42:36;;;;;;;9.55;5.32;;;19.30;92.70;;;;;;5033185;28;20033;-73
2022/10/06 02:45:06;;;;;;;11.18;5.72;;;19.30;92.60;;;;;;5032883;28;20021;-72
2022/10/06 02:47:33;;;;;;;9.35;5.13;;;19.30;92.90;;;;;;5032704;28;20084;-73
2022/10/06 02:50:04;;;;;;;10.00;5.40;;;19.30;92.70;;;;;;5032768;28;20487;-73
2022/10/06 02:52:39;;;;;;;12.05;5.60;;;19.30;92.90;;;;;;5033048;28;20108;-72
2022/10/06 02:55:06;;;;;;;10.70;5.55;;;19.30;92.70;;;;;;5032854;28;20486;-79
2022/10/06 02:57:32;;;;;;;9.32;5.88;;;19.20;92.60;;;;;;5011808;28;20042;-75
2022/10/06 02:59:59;;;;;;;9.88;5.35;;;19.20;92.80;;;;;;5013009;28;20055;-72
2022/10/06 03:02:24;;;;;;;10.48;4.85;;;19.30;92.90;;;;;;5012884;28;20033;-73
2022/10/06 03:04:50;;;;;;;8.70;4.93;;;19.30;92.70;;;;;;5012772;28;20471;-74
2022/10/06 03:07:16;;;;;;;12.05;5.78;;;19.30;92.70;;;;;;5012925;28;20037;-74
2022/10/06 03:09:42;;;;;;;8.93;5.00;;;19.20;92.60;;;;;;5013172;28;20045;-73
2022/10/06 03:12:08;;;;;;;9.65;5.40;;;19.30;92.60;;;;;;5012662;28;20042;-72
2022/10/06 03:14:34;;;;;;;8.90;4.97;;;19.20;92.60;;;;;;5012906;28;20014;-74
2022/10/06 03:17:00;;;;;;;9.35;5.10;;;19.30;92.60;;;;;;5011569;28;20420;-73
2022/10/06 03:19:26;;;;;;;9.77;5.07;;;19.30;92.60;;;;;;5012688;28;20501;-73
2022/10/06 03:21:52;;;;;;;9.40;5.32;;;19.20;92.60;;;;;;5012860;28;20092;-73
2022/10/06 03:24:18;;;;;;;10.25;5.32;;;19.20;92.50;;;;;;5013091;28;20109;-73
2022/10/06 03:26:46;;;;;;;10.52;5.75;;;19.20;92.70;;;;;;5011749;28;20518;-72
2022/10/06 03:29:12;;;;;;;9.55;5.50;;;19.10;92.60;;;;;;5013128;28;20113;-74
2022/10/06 03:31:39;;;;;;;9.60;6.43;;;19.10;92.60;;;;;;5013020;28;20024;-72
2022/10/06 03:34:05;;;;;;;10.88;6.68;;;19.20;92.70;;;;;;5012854;28;20080;-72
2022/10/06 03:36:32;;;;;;;10.73;6.80;;;19.10;92.70;;;;;;5012665;28;20102;-74
2022/10/06 03:38:58;;;;;;;12.25;6.75;;;19.10;92.80;;;;;;5013012;28;20356;-72
2022/10/06 03:41:27;;;;;;;11.45;6.70;;;19.10;92.80;;;;;;5012507;28;20018;-72
2022/10/06 03:43:54;;;;;;;11.32;7.78;;;19.10;92.80;;;;;;5012790;28;20058;-72
2022/10/06 03:46:22;;;;;;;14.88;7.65;;;19.10;92.90;;;;;;5011510;28;20104;-72
2022/10/06 03:48:50;;;;;;;13.05;7.55;;;19.10;92.90;;;;;;5012914;28;20061;-72
2022/10/06 03:51:26;;;;;;;16.55;8.32;;;19.10;93.20;;;;;;5012849;28;20075;-72
2022/10/06 03:53:52;;;;;;;13.38;8.70;;;19.00;93.40;;;;;;5012655;28;20072;-72
2022/10/06 03:56:20;;;;;;;12.00;8.90;;;19.00;93.40;;;;;;5013387;28;20368;-73
2022/10/06 03:59:01;;;;;;;12.40;8.27;;;19.00;93.40;;;;;;5047343;28;20029;-75
2022/10/06 04:01:32;;;;;;;14.60;8.70;;;19.00;93.50;;;;;;5032297;28;20037;-72
2022/10/06 04:03:59;;;;;;;14.50;7.45;;;19.00;93.50;;;;;;5032103;28;20156;-73
2022/10/06 04:06:26;;;;;;;12.73;7.25;;;18.90;93.40;;;;;;5031948;28;20442;-72
2022/10/06 04:08:53;;;;;;;12.52;6.82;;;18.90;93.40;;;;;;5031840;28;20034;-73
2022/10/06 04:11:27;;;;;;;11.75;6.93;;;19.00;93.40;;;;;;5047298;28;20018;-73
2022/10/06 04:13:59;;;;;;;12.38;6.53;;;19.00;93.40;;;;;;5032057;28;20028;-73
2022/10/06 04:16:27;;;;;;;13.23;6.38;;;19.00;93.30;;;;;;5032014;28;20032;-72
2022/10/06 04:19:01;;;;;;;12.15;6.80;;;18.90;92.90;;;;;;5031892;28;20030;-74
2022/10/06 04:21:27;;;;;;;;;;;19.00;92.80;;;;;;5032341;28;20052;-75
2022/10/06 04:23:55;;;;;;;13.52;6.00;;;18.90;92.80;;;;;;5032011;28;19905;-79
2022/10/06 04:26:23;;;;;;;10.65;6.20;;;18.90;92.70;;;;;;5014074;28;20025;-73
2022/10/06 04:28:49;;;;;;;16.90;6.47;;;18.90;92.60;;;;;;5031612;28;20036;-73
2022/10/06 04:31:18;;;;;;;10.93;5.40;;;18.90;92.50;;;;;;5032011;28;20037;-72
2022/10/06 04:33:45;;;;;;;8.52;5.47;;;18.90;92.50;;;;;;5050193;28;20028;-72
2022/10/06 04:36:21;;;;;;;9.07;5.72;;;18.80;92.40;;;;;;5035525;28;20079;-77
2022/10/06 04:38:48;;;;;;;14.98;6.15;;;18.80;92.40;;;;;;5035429;28;20025;-75
2022/10/06 04:41:17;;;;;;;8.50;5.80;;;18.70;92.50;;;;;;5035281;28;20026;-73
2022/10/06 04:43:46;;;;;;;12.80;6.13;;;18.70;92.50;;;;;;5018156;28;20026;-78
2022/10/06 04:46:13;;;;;;;11.88;6.20;;;18.70;92.60;;;;;;5035338;28;20498;-75
2022/10/06 04:48:40;;;;;;;11.80;6.63;;;18.70;92.60;;;;;;5035490;28;20122;-76
2022/10/06 04:51:11;;;;;;;12.70;8.13;;;18.80;92.80;;;;;;5035127;28;20026;-74
2022/10/06 04:53:37;;;;;;;15.60;9.50;;;18.80;92.90;;;;;;5017264;28;20029;-75
2022/10/06 04:56:10;;;;;;;14.55;10.80;;;18.80;92.80;;;;;;5050359;28;20176;-76
2022/10/06 04:58:44;;;;;;;22.30;13.88;;;18.80;93.10;;;;;;5034854;28;20042;-75
2022/10/06 05:01:23;;;;;;;26.58;15.02;;;18.80;93.30;;;;;;5035175;28;20466;-75
2022/10/06 05:03:51;;;;;;;21.52;15.68;;;18.90;93.70;;;;;;5035490;28;20022;-75
2022/10/06 05:06:23;;;;;;;23.45;15.20;;;18.90;93.70;;;;;;5035145;28;20037;-78
2022/10/06 05:08:52;;;;;;;26.83;16.95;;;18.90;94.10;;;;;;5034890;28;20037;-79
2022/10/06 05:11:19;;;;;;;23.63;15.85;;;18.90;94.30;;;;;;5034672;28;20029;-74
2022/10/06 05:13:45;;;;;;;29.05;17.02;;;18.80;94.30;;;;;;5034780;28;20033;-74
2022/10/06 05:16:13;;;;;;;28.63;16.63;;;18.80;94.50;;;;;;5034961;28;20022;-74
2022/10/06 05:18:41;;;;;;;26.45;15.70;;;18.80;94.60;;;;;;5034784;28;20474;-75
2022/10/06 05:21:11;;;;;;;25.85;15.50;;;18.70;94.70;;;;;;5034919;28;20025;-73
2022/10/06 05:23:39;;;;;;;25.90;15.32;;;18.70;94.70;;;;;;5035281;28;20025;-76
2022/10/06 05:26:06;;;;;;;25.90;15.55;;;18.70;94.70;;;;;;5042115;28;20544;-74
2022/10/06 05:28:32;;;;;;;23.40;14.57;;;18.80;94.80;;;;;;5054825;28;20065;-74
2022/10/06 05:31:08;;;;;;;29.92;14.82;;;18.70;94.70;;;;;;5054814;28;20075;-74
2022/10/06 05:33:35;;;;;;;22.25;14.30;;;18.70;94.70;;;;;;5036590;28;20536;-76
2022/10/06 05:36:06;;;;;;;21.20;12.80;;;18.60;94.80;;;;;;5054505;28;20044;-72
2022/10/06 05:38:33;;;;;;;20.83;12.55;;;18.70;94.80;;;;;;5054697;28;20052;-76
2022/10/06 05:41:00;;;;;;;20.23;12.48;;;18.70;94.70;;;;;;5043692;28;20025;-72
2022/10/06 05:43:26;;;;;;;28.73;13.10;;;18.70;94.70;;;;;;5045094;28;20021;-73
2022/10/06 05:45:57;;;;;;;21.08;12.45;;;18.70;94.70;;;;;;5050807;28;20538;-74
2022/10/06 05:48:23;;;;;;;23.45;11.82;;;18.80;94.50;;;;;;5045369;28;20079;-73
2022/10/06 05:51:01;;;;;;;21.02;11.48;;;18.80;94.50;;;;;;5034098;28;20382;-75
2022/10/06 05:53:28;;;;;;;19.52;12.00;;;18.80;94.40;;;;;;5034140;28;20037;-75
2022/10/06 05:56:15;;;;;;;18.08;11.18;;;18.70;94.40;;;;;;5034007;28;20017;-73
2022/10/06 05:58:43;;;;;;;16.73;11.32;;;18.80;94.40;;;;;;5016570;28;20123;-70
2022/10/06 06:01:15;;;;;;;19.92;11.77;;;18.70;94.30;;;;;;5035230;28;20463;-74
2022/10/06 06:03:47;;;;;;;19.38;10.05;;;18.80;94.40;;;;;;5037267;28;20076;-72
2022/10/06 06:06:20;;;;;;;15.50;10.98;;;18.80;94.20;;;;;;5034691;28;20021;-72
2022/10/06 06:08:47;;;;;;;16.35;10.82;;;18.70;94.20;;;;;;5015924;28;20041;-69
2022/10/06 06:11:13;;;;;;;17.20;10.48;;;18.70;94.20;;;;;;5033906;28;20067;-70
2022/10/06 06:13:39;;;;;;;15.30;9.98;;;18.80;94.20;;;;;;5033619;28;20462;-72
2022/10/06 06:16:06;;;;;;;18.35;11.27;;;18.80;94.10;;;;;;5033359;28;20028;-71
2022/10/06 06:18:35;;;;;;;16.35;9.98;;;18.90;93.90;;;;;;5033589;28;20056;-70
2022/10/06 06:21:03;;;;;;;16.80;11.13;;;19.00;93.70;;;;;;5033539;28;20034;-69
2022/10/06 06:23:37;;;;;;;18.90;10.68;;;19.00;93.60;;;;;;5015871;28;20032;-74
2022/10/06 06:26:09;;;;;;;18.20;11.75;;;19.00;93.60;;;;;;5033469;28;20057;-72
2022/10/06 06:28:35;;;;;;;16.33;10.48;;;19.10;93.40;;;;;;5053390;28;20032;-74
2022/10/06 06:31:07;;;;;;;20.48;11.52;;;19.20;93.40;;;;;;5052101;28;20427;-76
2022/10/06 06:33:36;;;;;;;18.88;10.50;;;19.30;93.30;;;;;;5053180;28;20025;-72
2022/10/06 06:36:17;;;;;;;14.73;9.90;;;19.40;93.00;;;;;;5035181;28;20433;-73
2022/10/06 06:38:46;;;;;;;18.17;10.63;;;19.50;93.10;;;;;;5051655;28;20114;-74
2022/10/06 06:41:20;;;;;;;13.27;9.63;;;19.60;92.60;;;;;;5052870;28;20478;-71
2022/10/06 06:43:47;;;;;;;17.83;9.70;;;19.70;92.60;;;;;;5053100;28;20028;-72
2022/10/06 06:46:14;;;;;;;17.17;9.02;;;19.80;92.20;;;;;;5052999;28;20060;-71
2022/10/06 06:48:40;;;;;;;15.88;8.68;;;19.90;92.10;;;;;;5050027;28;20029;-69
2022/10/06 06:51:07;;;;;;;13.60;8.05;;;20.20;91.70;;;;;;5053070;28;20035;-71
2022/10/06 06:53:33;;;;;;;13.52;7.72;;;20.30;91.40;;;;;;5052695;28;20025;-71
2022/10/06 06:55:59;;;;;;;13.18;8.27;;;20.40;91.10;;;;;;5051921;28;20021;-70
2022/10/06 06:58:25;;;;;;;15.38;8.55;;;20.50;90.80;;;;;;5052597;28;20053;-71
2022/10/06 07:00:51;;;;;;;16.60;7.70;;;20.60;90.50;;;;;;5053259;28;20388;-71
2022/10/06 07:03:21;;;;;;;12.60;7.78;;;20.70;90.70;;;;;;5034641;28;20122;-69
2022/10/06 07:05:47;;;;;;;13.65;7.55;;;20.90;90.30;;;;;;5047401;28;20364;-74
2022/10/06 07:08:15;;;;;;;15.32;7.35;;;21.00;90.00;;;;;;5017289;28;20040;-71
2022/10/06 07:10:43;;;;;;;14.77;7.07;;;21.00;89.00;;;;;;5032672;28;20022;-71
2022/10/06 07:13:14;;;;;;;15.93;7.93;;;21.10;88.70;;;;;;5032792;28;20017;-70
2022/10/06 07:26:38;;;;;;;12.88;6.22;;;21.60;86.90;;;;;;5052591;28;20105;-69
2022/10/06 07:29:05;;;;;;;12.48;6.57;;;21.60;86.00;;;;;;5052639;28;20449;-70
2022/10/06 07:31:32;;;;;;;15.40;6.50;;;21.50;86.20;;;;;;5052684;28;20147;-70
2022/10/06 07:34:03;;;;;;;15.57;6.25;;;21.50;85.30;;;;;;5034477;28;20087;-69
2022/10/06 07:36:32;;;;;;;15.48;6.82;;;21.40;85.10;;;;;;5052474;28;20025;-71
2022/10/06 07:38:58;;;;;;;11.23;6.95;;;21.50;85.00;;;;;;5052435;28;20478;-70
2022/10/06 07:41:24;;;;;;;11.25;6.18;;;21.50;84.90;;;;;;5033973;28;20025;-70
2022/10/06 07:43:52;;;;;;;17.83;6.90;;;21.60;84.80;;;;;;5052265;28;20047;-74
2022/10/06 07:46:18;;;;;;;20.90;7.88;;;21.60;84.40;;;;;;5051906;28;20025;-71
2022/10/06 07:48:47;;;;;;;13.27;7.03;;;21.60;84.40;;;;;;5052053;28;20488;-71
2022/10/06 07:51:15;;;;;;;62.03;37.67;;;21.60;84.00;;;;;;5052002;28;20320;-70
2022/10/06 07:53:43;;;;;;;81.60;55.08;;;21.60;83.80;;;;;;5052259;28;20064;-73
2022/10/06 07:56:09;;;;;;;21.90;13.52;;;21.60;83.60;;;;;;5052295;28;20103;-73
2022/10/06 07:58:36;;;;;;;29.38;17.25;;;21.50;83.70;;;;;;5034303;28;20041;-73
2022/10/06 08:01:07;;;;;;;23.20;13.10;;;21.40;83.90;;;;;;5052240;28;20456;-72
2022/10/06 08:03:33;;;;;;;18.02;9.82;;;21.30;83.90;;;;;;5052056;28;20052;-70
2022/10/06 08:06:00;;;;;;;12.98;6.88;;;21.20;84.10;;;;;;5052210;28;20382;-71
2022/10/06 08:08:29;;;;;;;14.80;7.70;;;21.20;84.10;;;;;;5055875;28;20435;-73
2022/10/06 08:10:56;;;;;;;15.85;6.95;;;21.20;84.60;;;;;;5055936;28;20021;-73
2022/10/06 08:13:23;;;;;;;11.02;6.65;;;21.10;84.40;;;;;;5055870;28;20025;-73
2022/10/06 08:15:50;;;;;;;12.13;6.75;;;21.10;84.50;;;;;;5055864;28;20112;-74
2022/10/06 08:18:17;;;;;;;13.30;6.30;;;21.10;84.60;;;;;;5038570;28;20029;-75
2022/10/06 08:20:51;;;;;;;14.63;6.97;;;21.10;84.40;;;;;;5056352;28;20047;-75
2022/10/06 08:26:21;;;;;;;14.82;6.30;;;21.20;84.80;;;;;;5058564;28;20102;-75
2022/10/06 08:28:49;;;;;;;12.60;6.55;;;21.40;84.10;;;;;;5055731;28;20032;-72
2022/10/06 08:31:17;;;;;;;13.05;6.05;;;21.40;83.10;;;;;;5055614;28;20392;-70
2022/10/06 08:33:44;;;;;;;10.57;6.00;;;21.40;82.80;;;;;;5055284;28;20469;-71
2022/10/06 08:36:18;;;;;;;13.88;6.47;;;21.40;82.60;;;;;;5054889;28;20031;-70
2022/10/06 08:38:50;;;;;;;14.05;6.70;;;21.40;82.50;;;;;;5055291;28;20032;-70
2022/10/06 08:41:47;;;;;;;10.80;6.28;;;21.50;82.90;;;;;;5055666;28;20099;-72
2022/10/06 08:44:17;;;;;;;12.95;5.97;;;21.60;82.70;;;;;;5054341;28;20035;-69
2022/10/06 08:47:24;;;;;;;14.23;5.57;;;21.60;82.90;;;;;;5055218;28;20304;-69
2022/10/06 08:49:53;;;;;;;10.50;5.78;;;21.60;82.70;;;;;;5041997;28;20413;-71
2022/10/06 08:52:25;;;;;;;8.65;4.95;;;21.60;81.50;;;;;;5054915;28;20025;-72
2022/10/06 08:55:00;;;;;;;12.82;5.78;;;21.60;82.20;;;;;;5054612;28;20049;-70
2022/10/06 08:57:30;;;;;;;12.23;5.20;;;21.60;81.20;;;;;;5054750;28;20124;-71
2022/10/06 08:59:57;;;;;;;12.93;4.82;;;21.60;80.80;;;;;;5054993;28;20027;-72
2022/10/06 09:02:27;;;;;;;14.00;4.93;;;21.60;80.60;;;;;;5054881;28;20052;-70
2022/10/06 09:04:52;;;;;;;9.27;4.47;;;21.70;81.30;;;;;;5036824;28;20132;-71
2022/10/06 09:07:42;;;;;;;10.45;4.82;;;21.70;80.20;;;;;;5054829;28;20517;-70
2022/10/06 09:10:29;;;;;;;11.45;4.82;;;21.80;80.70;;;;;;5054516;28;20099;-71
2022/10/06 09:12:58;;;;;;;9.77;3.95;;;21.80;80.50;;;;;;5054705;28;20410;-70
2022/10/06 09:15:45;;;;;;;14.25;4.65;;;21.80;79.70;;;;;;5054583;28;20033;-70
2022/10/06 09:18:37;;;;;;;7.97;4.60;;;22.00;80.50;;;;;;5053861;28;20032;-70
2022/10/06 09:21:15;;;;;;;11.35;4.50;;;22.00;79.00;;;;;;5054800;28;20101;-70
2022/10/06 09:23:47;;;;;;;10.30;4.53;;;22.10;79.70;;;;;;5038897;28;20041;-71
2022/10/06 09:26:28;;;;;;;8.25;4.82;;;22.10;78.60;;;;;;5037314;28;20030;-72
2022/10/06 09:28:55;;;;;;;9.27;4.80;;;22.20;78.50;;;;;;5054562;28;20498;-71
2022/10/06 09:31:49;;;;;;;10.25;5.20;;;22.30;78.40;;;;;;5054502;28;20128;-73
2022/10/06 09:34:15;;;;;;;;;;;22.30;78.70;;;;;;5052493;28;20028;-72
2022/10/06 09:37:06;;;;;;;8.48;4.30;;;22.40;78.00;;;;;;5036827;28;20362;-77
2022/10/06 09:39:36;;;;;;;11.73;5.10;;;22.50;78.60;;;;;;5054653;28;20029;-77
2022/10/06 09:42:16;;;;;;;10.00;4.72;;;22.60;77.10;;;;;;5054112;28;20167;-71
2022/10/06 09:45:04;;;;;;;13.38;4.90;;;22.70;77.00;;;;;;5053968;28;20029;-70
2022/10/06 09:47:44;;;;;;;10.75;5.43;;;22.80;76.90;;;;;;5053738;28;20037;-72
2022/10/06 09:50:20;;;;;;;11.90;4.53;;;22.90;76.60;;;;;;5054136;28;20025;-72
2022/10/06 09:53:10;;;;;;;9.65;4.40;;;23.00;75.90;;;;;;5054211;28;20037;-70
2022/10/06 09:55:36;;;;;;;9.48;3.42;;;23.10;75.50;;;;;;5027394;28;20040;-74
2022/10/06 09:58:14;;;;;;;13.65;3.42;;;23.20;74.40;;;;;;5053881;28;20386;-71
2022/10/06 10:00:53;;;;;;;11.77;3.88;;;23.20;73.60;;;;;;5053978;28;20056;-74
2022/10/06 10:03:40;;;;;;;7.60;3.65;;;23.30;73.40;;;;;;5054188;28;20029;-70
2022/10/06 10:06:07;;;;;;;7.55;3.13;;;23.40;72.50;;;;;;5054101;28;20032;-72
2022/10/06 10:08:35;;;;;;;7.25;3.53;;;23.40;71.80;;;;;;5053743;28;20033;-70
2022/10/06 10:14:03;;;;;;;15.55;4.43;;;23.70;71.00;;;;;;5053945;28;20087;-69
2022/10/06 10:16:39;;;;;;;8.98;3.40;;;23.80;71.20;;;;;;5053495;28;20029;-68
2022/10/06 10:19:09;;;;;;;7.45;2.97;;;23.90;70.30;;;;;;5053541;28;20033;-71
2022/10/06 10:21:35;;;;;;;7.78;3.63;;;24.00;70.40;;;;;;5053478;28;20100;-69
2022/10/06 10:24:07;;;;;;;11.68;3.60;;;24.10;70.30;;;;;;5035625;28;20121;-70
2022/10/06 10:26:54;;;;;;;15.20;3.80;;;24.20;69.80;;;;;;5052990;28;20074;-71
2022/10/06 10:29:32;;;;;;;11.25;3.92;;;24.30;68.90;;;;;;5035315;28;20082;-69
2022/10/06 10:32:14;;;;;;;8.70;3.60;;;24.40;68.80;;;;;;5035119;28;20036;-70
2022/10/06 10:34:49;;;;;;;13.55;3.70;;;24.50;67.90;;;;;;5053188;28;20033;-68
2022/10/06 10:37:30;;;;;;;10.30;4.03;;;24.60;67.60;;;;;;5053414;28;20017;-69
2022/10/06 10:39:59;;;;;;;9.27;3.58;;;24.70;68.20;;;;;;5047469;28;20037;-69
2022/10/06 10:42:50;;;;;;;13.48;3.45;;;24.70;68.00;;;;;;5053470;28;20017;-74
2022/10/06 10:46:02;;;;;;;11.57;3.80;;;24.80;67.50;;;;;;5035952;28;20106;-69
2022/10/06 10:48:37;;;;;;;13.98;4.25;;;24.90;67.50;;;;;;5039014;28;20102;-70
2022/10/06 10:51:20;;;;;;;6.00;3.30;;;24.90;66.30;;;;;;5057601;28;20033;-72
2022/10/06 10:54:18;;;;;;;7.68;3.35;;;24.90;66.00;;;;;;5055761;28;20067;-75
2022/10/06 10:56:48;;;;;;;17.27;4.47;;;25.00;65.80;;;;;;5064831;23;20048;-82
2022/10/06 10:59:34;;;;;;;17.98;4.30;;;25.00;66.90;;;;;;5035308;28;20029;-76
2022/10/06 11:02:19;;;;;;;22.60;4.80;;;25.10;65.60;;;;;;5052838;28;20029;-74
2022/10/06 11:04:56;;;;;;;13.40;3.35;;;25.20;64.80;;;;;;5052853;28;20017;-73
2022/10/06 11:07:31;;;;;;;8.07;3.03;;;25.30;65.70;;;;;;5016235;28;20126;-73
2022/10/06 11:10:09;;;;;;;12.27;3.88;;;25.30;64.60;;;;;;5032685;28;20483;-75
2022/10/06 11:12:35;;;;;;;8.55;3.75;;;25.30;64.30;;;;;;5033092;28;20033;-76
2022/10/06 11:15:54;;;;;;;7.53;3.35;;;25.40;64.60;;;;;;5032589;28;20049;-76
2022/10/06 11:18:29;;;;;;;197.50;17.42;;;25.50;63.90;;;;;;4933191;29;20521;-75
2022/10/06 11:21:22;;;;;;;18.45;5.38;;;25.60;64.60;;;;;;4933075;29;20058;-75
2022/10/06 11:24:14;;;;;;;31.50;6.47;;;25.60;64.40;;;;;;5014039;28;20483;-75
2022/10/06 11:27:01;;;;;;;7.30;3.22;;;25.70;65.00;;;;;;4994642;28;20033;-76
2022/10/06 11:29:41;;;;;;;18.80;4.13;;;25.70;63.20;;;;;;5032496;28;20041;-73
2022/10/06 11:32:26;;;;;;;14.65;9.00;;;25.70;62.50;;;;;;5032422;28;20025;-75
2022/10/06 11:34:52;;;;;;;8.32;3.20;;;25.80;62.30;;;;;;5032751;28;20026;-76
2022/10/06 11:37:31;;;;;;;11.27;3.70;;;25.90;62.40;;;;;;5032455;28;20112;-73
2022/10/06 11:40:20;;;;;;;14.45;4.68;;;26.00;62.10;;;;;;5032645;28;20017;-76
2022/10/06 11:43:04;;;;;;;9.27;3.05;;;26.00;62.10;;;;;;5036675;28;20047;-82
2022/10/06 11:45:58;;;;;;;5.57;3.20;;;26.20;61.50;;;;;;5037369;28;20103;-77
2022/10/06 11:48:29;;;;;;;8.27;2.80;;;26.20;60.70;;;;;;5037467;28;20037;-76
2022/10/06 11:51:16;;;;;;;8.10;3.38;;;26.40;60.20;;;;;;5037821;28;20364;-79
2022/10/06 11:53:42;;;;;;;9.85;3.55;;;26.40;60.70;;;;;;5022032;28;20045;-80
2022/10/06 11:56:17;;;;;;;7.90;2.90;;;26.60;60.10;;;;;;5004254;28;20041;-83
2022/10/06 11:58:58;;;;;;;8.50;3.35;;;26.70;59.80;;;;;;5038966;28;20116;-77
2022/10/06 12:01:29;;;;;;;9.38;3.40;;;26.80;59.20;;;;;;5038972;28;20541;-82
2022/10/06 12:04:10;;;;;;;13.23;4.78;;;26.80;58.90;;;;;;5037109;28;20108;-84
2022/10/06 12:06:45;;;;;;;6.70;2.92;;;27.00;59.30;;;;;;5042183;28;20474;-78
2022/10/06 12:09:34;;;;;;;13.93;9.05;;;27.00;58.10;;;;;;5042132;28;20095;-82
2022/10/06 12:12:19;;;;;;;6.07;3.13;;;27.10;57.60;;;;;;5039760;28;20095;-83
2022/10/06 12:14:45;;;;;;;9.13;3.58;;;27.10;57.40;;;;;;5041336;28;20029;-83
2022/10/06 12:17:33;;;;;;;8.70;3.22;;;27.30;57.50;;;;;;5037666;28;20040;-85
2022/10/06 12:20:25;;;;;;;7.28;3.15;;;27.40;57.10;;;;;;5038990;28;20488;-83
2022/10/06 12:23:07;;;;;;;14.98;4.45;;;27.50;56.30;;;;;;5039884;28;20370;-84
2022/10/06 12:25:57;;;;;;;9.25;3.83;;;27.60;56.90;;;;;;5040296;28;20048;-83
2022/10/06 12:28:50;;;;;;;8.35;3.70;;;27.60;56.60;;;;;;5048230;28;20037;-84
2022/10/06 12:31:54;;;;;;;9.35;4.40;;;27.70;55.90;;;;;;5042593;28;20045;-83
2022/10/06 12:34:42;;;;;;;8.30;3.47;;;27.70;56.10;;;;;;4941785;28;20487;-78
2022/10/06 12:37:27;;;;;;;11.02;2.80;;;27.60;56.60;;;;;;5019620;28;20030;-76
2022/10/06 12:40:31;;;;;;;7.28;3.78;;;27.70;55.70;;;;;;5037022;28;20045;-73
2022/10/06 12:43:17;;;;;;;;;;;27.80;55.20;;;;;;5037149;28;20053;-75
2022/10/06 12:46:11;;;;;;;9.90;3.17;;;27.80;54.90;;;;;;5027556;28;20317;-77
2022/10/06 12:49:04;;;;;;;10.93;3.75;;;27.90;54.10;;;;;;5019492;28;20041;-72
2022/10/06 12:51:37;;;;;;;9.25;3.17;;;27.80;53.90;;;;;;5037376;28;20424;-80
2022/10/06 12:54:03;;;;;;;9.30;4.07;;;27.80;54.50;;;;;;5036276;28;20091;-80
2022/10/06 12:56:41;;;;;;;7.13;4.07;;;27.80;55.00;;;;;;5036365;28;20049;-81
2022/10/06 12:59:32;;;;;;;7.75;3.05;;;27.90;55.30;;;;;;5037283;28;20043;-80
2022/10/06 13:02:01;;;;;;;9.30;3.45;;;27.90;53.80;;;;;;5019346;28;20156;-79
2022/10/06 13:04:48;;;;;;;9.00;3.58;;;28.00;54.40;;;;;;5018996;28;20037;-81
2022/10/06 13:07:17;;;;;;;8.35;3.40;;;28.10;54.10;;;;;;5036799;28;20038;-79
2022/10/06 13:09:44;;;;;;;12.55;4.07;;;28.20;55.90;;;;;;5035961;28;20026;-81
2022/10/06 13:12:31;;;;;;;10.32;3.50;;;28.10;56.50;;;;;;5036560;28;20040;-78
2022/10/06 13:15:17;;;;;;;8.05;3.22;;;28.10;56.70;;;;;;5036054;28;20027;-83
2022/10/06 13:17:56;;;;;;;9.70;4.03;;;28.10;57.00;;;;;;5035954;28;20049;-81
2022/10/06 13:20:40;;;;;;;11.55;3.92;;;28.20;56.50;;;;;;5036048;28;20032;-77
2022/10/06 13:23:31;;;;;;;9.32;3.75;;;28.20;57.60;;;;;;5035108;28;20030;-72